sensor_id;sensor_type;location;lat;lon;timestamp;P1;durP1;ratioP1;P2;durP2;ratioP2
49101;SDS011;34913;47.520;19.186;2023-03-23T00:01:10;29.65;;;16.50;;
49101;SDS011;34913;47.520;19.186;2023-03-23T00:03:40;30.08;;;17.17;;
49101;SDS011;34913;47.520;19.186;2023-03-23T00:06:08;29.05;;;16.60;;
49101;SDS011;34913;47.520;19.186;2023-03-23T00:08:38;26.58;;;16.20;;
49101;SDS011;34913;47.520;19.186;2023-03-23T00:11:17;29.45;;;16.45;;
49101;SDS011;34913;47.520;19.186;2023-03-23T00:13:44;25.80;;;15.63;;
49101;SDS011;34913;47.520;19.186;2023-03-23T00:16:11;29.00;;;16.40;;
49101;SDS011;34913;47.520;19.186;2023-03-23T00:18:44;28.20;;;16.33;;
49101;SDS011;34913;47.520;19.186;2023-03-23T00:21:17;28.88;;;15.77;;
49101;SDS011;34913;47.520;19.186;2023-03-23T00:23:43;29.33;;;16.20;;
49101;SDS011;34913;47.520;19.186;2023-03-23T00:26:10;30.13;;;15.52;;
49101;SDS011;34913;47.520;19.186;2023-03-23T00:28:36;28.52;;;15.10;;
49101;SDS011;34913;47.520;19.186;2023-03-23T00:31:04;27.58;;;15.18;;
49101;SDS011;34913;47.520;19.186;2023-03-23T00:33:34;26.13;;;14.68;;
49101;SDS011;34913;47.520;19.186;2023-03-23T00:36:06;27.48;;;15.70;;
49101;SDS011;34913;47.520;19.186;2023-03-23T00:38:33;27.92;;;15.48;;
49101;SDS011;34913;47.520;19.186;2023-03-23T00:41:00;29.85;;;15.27;;
49101;SDS011;34913;47.520;19.186;2023-03-23T00:43:28;25.55;;;14.60;;
49101;SDS011;34913;47.520;19.186;2023-03-23T00:45:55;25.55;;;15.10;;
49101;SDS011;34913;47.520;19.186;2023-03-23T00:48:22;29.83;;;15.15;;
49101;SDS011;34913;47.520;19.186;2023-03-23T00:50:49;25.65;;;14.30;;
49101;SDS011;34913;47.520;19.186;2023-03-23T00:53:16;25.75;;;14.45;;
49101;SDS011;34913;47.520;19.186;2023-03-23T00:55:42;28.75;;;14.70;;
49101;SDS011;34913;47.520;19.186;2023-03-23T00:58:09;25.08;;;14.63;;
49101;SDS011;34913;47.520;19.186;2023-03-23T01:00:35;28.20;;;14.70;;
49101;SDS011;34913;47.520;19.186;2023-03-23T01:03:01;22.63;;;14.15;;
49101;SDS011;34913;47.520;19.186;2023-03-23T01:05:27;25.30;;;14.68;;
49101;SDS011;34913;47.520;19.186;2023-03-23T01:08:00;24.85;;;14.18;;
49101;SDS011;34913;47.520;19.186;2023-03-23T01:10:26;24.25;;;13.93;;
49101;SDS011;34913;47.520;19.186;2023-03-23T01:12:53;23.85;;;14.18;;
49101;SDS011;34913;47.520;19.186;2023-03-23T01:15:20;24.08;;;13.60;;
49101;SDS011;34913;47.520;19.186;2023-03-23T01:17:46;25.27;;;13.70;;
49101;SDS011;34913;47.520;19.186;2023-03-23T01:20:12;21.50;;;13.20;;
49101;SDS011;34913;47.520;19.186;2023-03-23T01:22:40;23.33;;;13.40;;
49101;SDS011;34913;47.520;19.186;2023-03-23T01:25:07;21.75;;;12.43;;
49101;SDS011;34913;47.520;19.186;2023-03-23T01:27:33;23.25;;;13.13;;
49101;SDS011;34913;47.520;19.186;2023-03-23T01:29:59;21.38;;;12.43;;
49101;SDS011;34913;47.520;19.186;2023-03-23T01:32:25;22.60;;;12.75;;
49101;SDS011;34913;47.520;19.186;2023-03-23T01:34:50;22.65;;;12.20;;
49101;SDS011;34913;47.520;19.186;2023-03-23T01:37:16;21.30;;;13.20;;
49101;SDS011;34913;47.520;19.186;2023-03-23T01:39:41;20.77;;;12.45;;
49101;SDS011;34913;47.520;19.186;2023-03-23T01:42:10;20.63;;;12.55;;
49101;SDS011;34913;47.520;19.186;2023-03-23T01:47:00;17.17;;;11.27;;
49101;SDS011;34913;47.520;19.186;2023-03-23T01:49:36;19.10;;;11.25;;
49101;SDS011;34913;47.520;19.186;2023-03-23T01:52:06;24.90;;;12.48;;
49101;SDS011;34913;47.520;19.186;2023-03-23T01:54:38;17.85;;;11.48;;
49101;SDS011;34913;47.520;19.186;2023-03-23T01:57:06;19.70;;;11.43;;
49101;SDS011;34913;47.520;19.186;2023-03-23T01:59:34;24.38;;;12.02;;
49101;SDS011;34913;47.520;19.186;2023-03-23T02:02:00;19.40;;;11.95;;
49101;SDS011;34913;47.520;19.186;2023-03-23T02:04:27;19.50;;;12.48;;
49101;SDS011;34913;47.520;19.186;2023-03-23T02:06:55;19.23;;;12.00;;
49101;SDS011;34913;47.520;19.186;2023-03-23T02:09:23;22.58;;;12.60;;
49101;SDS011;34913;47.520;19.186;2023-03-23T02:11:50;22.02;;;11.60;;
49101;SDS011;34913;47.520;19.186;2023-03-23T02:14:17;19.45;;;11.82;;
49101;SDS011;34913;47.520;19.186;2023-03-23T02:16:45;17.30;;;11.18;;
49101;SDS011;34913;47.520;19.186;2023-03-23T02:28:02;17.58;;;11.07;;
49101;SDS011;34913;47.520;19.186;2023-03-23T02:36:01;17.83;;;11.13;;
49101;SDS011;34913;47.520;19.186;2023-03-23T02:38:37;16.60;;;11.02;;
49101;SDS011;34913;47.520;19.186;2023-03-23T02:41:04;19.42;;;11.30;;
49101;SDS011;34913;47.520;19.186;2023-03-23T02:43:42;17.40;;;11.10;;
49101;SDS011;34913;47.520;19.186;2023-03-23T02:46:10;16.92;;;9.88;;
49101;SDS011;34913;47.520;19.186;2023-03-23T02:48:36;17.98;;;9.77;;
49101;SDS011;34913;47.520;19.186;2023-03-23T02:51:05;17.98;;;11.00;;
49101;SDS011;34913;47.520;19.186;2023-03-23T02:53:33;18.10;;;10.82;;
49101;SDS011;34913;47.520;19.186;2023-03-23T02:56:02;15.93;;;10.18;;
49101;SDS011;34913;47.520;19.186;2023-03-23T02:58:30;16.20;;;10.10;;
49101;SDS011;34913;47.520;19.186;2023-03-23T03:00:55;17.10;;;9.90;;
49101;SDS011;34913;47.520;19.186;2023-03-23T03:03:24;15.38;;;9.55;;
49101;SDS011;34913;47.520;19.186;2023-03-23T03:08:46;15.18;;;9.80;;
49101;SDS011;34913;47.520;19.186;2023-03-23T03:11:18;14.27;;;9.40;;
49101;SDS011;34913;47.520;19.186;2023-03-23T03:14:21;15.02;;;9.73;;
49101;SDS011;34913;47.520;19.186;2023-03-23T03:16:56;16.38;;;9.40;;
49101;SDS011;34913;47.520;19.186;2023-03-23T03:19:40;14.82;;;9.60;;
49101;SDS011;34913;47.520;19.186;2023-03-23T03:22:09;16.38;;;9.55;;
49101;SDS011;34913;47.520;19.186;2023-03-23T03:24:36;15.38;;;9.32;;
49101;SDS011;34913;47.520;19.186;2023-03-23T03:27:02;13.40;;;8.90;;
49101;SDS011;34913;47.520;19.186;2023-03-23T03:29:35;16.75;;;9.43;;
49101;SDS011;34913;47.520;19.186;2023-03-23T03:32:06;14.43;;;9.40;;
49101;SDS011;34913;47.520;19.186;2023-03-23T03:34:36;13.85;;;9.10;;
49101;SDS011;34913;47.520;19.186;2023-03-23T03:37:02;16.05;;;9.18;;
49101;SDS011;34913;47.520;19.186;2023-03-23T03:39:30;15.88;;;9.20;;
49101;SDS011;34913;47.520;19.186;2023-03-23T03:41:59;14.48;;;9.05;;
49101;SDS011;34913;47.520;19.186;2023-03-23T03:44:24;15.98;;;9.02;;
49101;SDS011;34913;47.520;19.186;2023-03-23T03:46:49;20.15;;;9.32;;
49101;SDS011;34913;47.520;19.186;2023-03-23T03:49:15;15.00;;;9.35;;
49101;SDS011;34913;47.520;19.186;2023-03-23T03:51:41;14.82;;;9.00;;
49101;SDS011;34913;47.520;19.186;2023-03-23T03:54:06;15.63;;;9.63;;
49101;SDS011;34913;47.520;19.186;2023-03-23T03:56:33;16.00;;;9.00;;
49101;SDS011;34913;47.520;19.186;2023-03-23T03:59:01;15.13;;;9.27;;
49101;SDS011;34913;47.520;19.186;2023-03-23T04:01:28;17.58;;;9.20;;
49101;SDS011;34913;47.520;19.186;2023-03-23T04:03:53;15.95;;;9.40;;
49101;SDS011;34913;47.520;19.186;2023-03-23T04:06:19;16.70;;;9.40;;
49101;SDS011;34913;47.520;19.186;2023-03-23T04:08:45;17.70;;;9.18;;
49101;SDS011;34913;47.520;19.186;2023-03-23T04:11:11;12.77;;;8.48;;
49101;SDS011;34913;47.520;19.186;2023-03-23T04:13:38;14.85;;;8.98;;
49101;SDS011;34913;47.520;19.186;2023-03-23T04:16:04;15.68;;;8.15;;
49101;SDS011;34913;47.520;19.186;2023-03-23T04:18:30;14.80;;;8.90;;
49101;SDS011;34913;47.520;19.186;2023-03-23T04:20:57;15.13;;;8.25;;
49101;SDS011;34913;47.520;19.186;2023-03-23T04:23:24;14.02;;;8.30;;
49101;SDS011;34913;47.520;19.186;2023-03-23T04:25:51;13.55;;;8.25;;
49101;SDS011;34913;47.520;19.186;2023-03-23T04:28:18;14.40;;;9.32;;
49101;SDS011;34913;47.520;19.186;2023-03-23T04:30:44;18.60;;;11.50;;
49101;SDS011;34913;47.520;19.186;2023-03-23T04:33:13;16.95;;;11.13;;
49101;SDS011;34913;47.520;19.186;2023-03-23T04:35:40;16.83;;;10.75;;
49101;SDS011;34913;47.520;19.186;2023-03-23T04:38:07;22.67;;;11.50;;
49101;SDS011;34913;47.520;19.186;2023-03-23T04:40:37;16.42;;;10.60;;
49101;SDS011;34913;47.520;19.186;2023-03-23T04:43:04;18.40;;;10.75;;
49101;SDS011;34913;47.520;19.186;2023-03-23T04:45:30;15.18;;;9.90;;
49101;SDS011;34913;47.520;19.186;2023-03-23T04:47:56;16.88;;;10.20;;
49101;SDS011;34913;47.520;19.186;2023-03-23T04:50:22;15.68;;;9.52;;
49101;SDS011;34913;47.520;19.186;2023-03-23T04:52:52;17.38;;;10.00;;
49101;SDS011;34913;47.520;19.186;2023-03-23T04:55:19;18.20;;;9.45;;
49101;SDS011;34913;47.520;19.186;2023-03-23T04:57:46;13.48;;;9.70;;
49101;SDS011;34913;47.520;19.186;2023-03-23T05:00:14;16.52;;;10.32;;
49101;SDS011;34913;47.520;19.186;2023-03-23T05:02:42;15.45;;;9.95;;
49101;SDS011;34913;47.520;19.186;2023-03-23T05:05:09;15.15;;;10.15;;
49101;SDS011;34913;47.520;19.186;2023-03-23T05:07:37;15.60;;;9.48;;
49101;SDS011;34913;47.520;19.186;2023-03-23T05:10:03;14.20;;;9.05;;
49101;SDS011;34913;47.520;19.186;2023-03-23T05:12:30;14.25;;;9.43;;
49101;SDS011;34913;47.520;19.186;2023-03-23T05:14:55;14.55;;;9.00;;
49101;SDS011;34913;47.520;19.186;2023-03-23T05:17:21;20.38;;;9.23;;
49101;SDS011;34913;47.520;19.186;2023-03-23T05:19:49;19.17;;;9.52;;
49101;SDS011;34913;47.520;19.186;2023-03-23T05:22:15;16.23;;;9.60;;
49101;SDS011;34913;47.520;19.186;2023-03-23T05:24:41;14.88;;;9.23;;
49101;SDS011;34913;47.520;19.186;2023-03-23T05:27:07;17.90;;;9.38;;
49101;SDS011;34913;47.520;19.186;2023-03-23T05:29:36;16.75;;;9.35;;
49101;SDS011;34913;47.520;19.186;2023-03-23T05:32:03;19.02;;;10.48;;
49101;SDS011;34913;47.520;19.186;2023-03-23T05:34:30;18.05;;;10.80;;
49101;SDS011;34913;47.520;19.186;2023-03-23T05:36:58;19.70;;;10.27;;
49101;SDS011;34913;47.520;19.186;2023-03-23T05:39:24;19.73;;;10.68;;
49101;SDS011;34913;47.520;19.186;2023-03-23T05:41:50;16.90;;;10.55;;
49101;SDS011;34913;47.520;19.186;2023-03-23T05:44:16;15.18;;;9.43;;
49101;SDS011;34913;47.520;19.186;2023-03-23T05:46:42;14.73;;;10.10;;
49101;SDS011;34913;47.520;19.186;2023-03-23T05:49:08;18.67;;;9.27;;
49101;SDS011;34913;47.520;19.186;2023-03-23T05:51:34;12.85;;;8.60;;
49101;SDS011;34913;47.520;19.186;2023-03-23T05:54:00;16.05;;;8.40;;
49101;SDS011;34913;47.520;19.186;2023-03-23T05:56:25;12.50;;;7.50;;
49101;SDS011;34913;47.520;19.186;2023-03-23T05:58:55;11.25;;;7.13;;
49101;SDS011;34913;47.520;19.186;2023-03-23T06:01:20;9.75;;;6.75;;
49101;SDS011;34913;47.520;19.186;2023-03-23T06:03:46;11.25;;;6.85;;
49101;SDS011;34913;47.520;19.186;2023-03-23T06:06:13;10.45;;;6.88;;
49101;SDS011;34913;47.520;19.186;2023-03-23T06:08:38;9.18;;;6.82;;
49101;SDS011;34913;47.520;19.186;2023-03-23T06:11:04;10.52;;;6.93;;
49101;SDS011;34913;47.520;19.186;2023-03-23T06:13:31;10.48;;;6.72;;
49101;SDS011;34913;47.520;19.186;2023-03-23T06:15:57;13.65;;;6.93;;
49101;SDS011;34913;47.520;19.186;2023-03-23T06:18:23;9.55;;;7.07;;
49101;SDS011;34913;47.520;19.186;2023-03-23T06:20:49;10.90;;;7.47;;
49101;SDS011;34913;47.520;19.186;2023-03-23T06:23:15;14.35;;;7.57;;
49101;SDS011;34913;47.520;19.186;2023-03-23T06:25:41;10.40;;;6.70;;
49101;SDS011;34913;47.520;19.186;2023-03-23T06:28:07;12.10;;;7.60;;
49101;SDS011;34913;47.520;19.186;2023-03-23T06:30:34;11.48;;;7.95;;
49101;SDS011;34913;47.520;19.186;2023-03-23T06:33:00;14.63;;;7.70;;
49101;SDS011;34913;47.520;19.186;2023-03-23T06:35:25;11.90;;;8.07;;
49101;SDS011;34913;47.520;19.186;2023-03-23T06:37:51;10.27;;;7.68;;
49101;SDS011;34913;47.520;19.186;2023-03-23T06:40:18;12.90;;;7.68;;
49101;SDS011;34913;47.520;19.186;2023-03-23T06:42:44;11.10;;;7.57;;
49101;SDS011;34913;47.520;19.186;2023-03-23T06:45:10;12.70;;;7.53;;
49101;SDS011;34913;47.520;19.186;2023-03-23T06:47:35;12.20;;;7.70;;
49101;SDS011;34913;47.520;19.186;2023-03-23T06:50:01;11.48;;;7.65;;
49101;SDS011;34913;47.520;19.186;2023-03-23T06:52:27;13.43;;;8.13;;
49101;SDS011;34913;47.520;19.186;2023-03-23T06:54:52;13.18;;;8.00;;
49101;SDS011;34913;47.520;19.186;2023-03-23T06:57:18;12.18;;;7.97;;
49101;SDS011;34913;47.520;19.186;2023-03-23T06:59:44;12.30;;;8.57;;
49101;SDS011;34913;47.520;19.186;2023-03-23T07:02:11;14.75;;;8.98;;
49101;SDS011;34913;47.520;19.186;2023-03-23T07:04:38;13.20;;;8.75;;
49101;SDS011;34913;47.520;19.186;2023-03-23T07:07:05;14.25;;;8.93;;
49101;SDS011;34913;47.520;19.186;2023-03-23T07:09:34;12.98;;;9.30;;
49101;SDS011;34913;47.520;19.186;2023-03-23T07:12:00;14.57;;;10.07;;
49101;SDS011;34913;47.520;19.186;2023-03-23T07:14:26;17.17;;;10.90;;
49101;SDS011;34913;47.520;19.186;2023-03-23T07:16:51;20.65;;;10.45;;
49101;SDS011;34913;47.520;19.186;2023-03-23T07:19:18;16.80;;;11.68;;
49101;SDS011;34913;47.520;19.186;2023-03-23T07:21:43;19.30;;;12.80;;
49101;SDS011;34913;47.520;19.186;2023-03-23T07:24:12;18.20;;;12.13;;
49101;SDS011;34913;47.520;19.186;2023-03-23T07:26:47;17.98;;;12.45;;
49101;SDS011;34913;47.520;19.186;2023-03-23T07:29:26;17.67;;;12.40;;
49101;SDS011;34913;47.520;19.186;2023-03-23T07:31:55;16.05;;;11.48;;
49101;SDS011;34913;47.520;19.186;2023-03-23T07:34:20;14.77;;;11.07;;
49101;SDS011;34913;47.520;19.186;2023-03-23T07:36:49;14.93;;;10.13;;
49101;SDS011;34913;47.520;19.186;2023-03-23T07:39:14;16.38;;;9.98;;
49101;SDS011;34913;47.520;19.186;2023-03-23T07:41:40;12.77;;;8.68;;
49101;SDS011;34913;47.520;19.186;2023-03-23T07:44:05;15.40;;;9.00;;
49101;SDS011;34913;47.520;19.186;2023-03-23T07:46:31;16.10;;;9.10;;
49101;SDS011;34913;47.520;19.186;2023-03-23T07:48:59;12.50;;;9.10;;
49101;SDS011;34913;47.520;19.186;2023-03-23T07:51:25;10.95;;;8.10;;
49101;SDS011;34913;47.520;19.186;2023-03-23T07:53:51;14.73;;;8.50;;
49101;SDS011;34913;47.520;19.186;2023-03-23T07:56:16;14.38;;;8.40;;
49101;SDS011;34913;47.520;19.186;2023-03-23T07:58:44;12.15;;;8.88;;
49101;SDS011;34913;47.520;19.186;2023-03-23T08:01:10;11.60;;;8.65;;
49101;SDS011;34913;47.520;19.186;2023-03-23T08:03:39;14.27;;;8.50;;
49101;SDS011;34913;47.520;19.186;2023-03-23T08:06:05;15.77;;;9.02;;
49101;SDS011;34913;47.520;19.186;2023-03-23T08:08:31;15.52;;;10.27;;
49101;SDS011;34913;47.520;19.186;2023-03-23T08:10:58;13.10;;;8.75;;
49101;SDS011;34913;47.520;19.186;2023-03-23T08:13:24;11.93;;;8.52;;
49101;SDS011;34913;47.520;19.186;2023-03-23T08:15:49;20.48;;;8.90;;
49101;SDS011;34913;47.520;19.186;2023-03-23T08:18:16;14.02;;;8.65;;
49101;SDS011;34913;47.520;19.186;2023-03-23T08:20:42;11.88;;;8.60;;
49101;SDS011;34913;47.520;19.186;2023-03-23T08:23:09;15.68;;;8.60;;
49101;SDS011;34913;47.520;19.186;2023-03-23T08:25:35;15.55;;;9.00;;
49101;SDS011;34913;47.520;19.186;2023-03-23T08:28:01;11.88;;;8.00;;
49101;SDS011;34913;47.520;19.186;2023-03-23T08:30:28;11.85;;;7.85;;
49101;SDS011;34913;47.520;19.186;2023-03-23T08:32:55;13.07;;;7.55;;
49101;SDS011;34913;47.520;19.186;2023-03-23T08:35:23;10.02;;;7.00;;
49101;SDS011;34913;47.520;19.186;2023-03-23T08:37:49;14.93;;;7.45;;
49101;SDS011;34913;47.520;19.186;2023-03-23T08:40:19;10.80;;;7.15;;
49101;SDS011;34913;47.520;19.186;2023-03-23T08:42:47;11.13;;;7.15;;
49101;SDS011;34913;47.520;19.186;2023-03-23T08:45:15;11.45;;;6.97;;
49101;SDS011;34913;47.520;19.186;2023-03-23T08:47:43;11.73;;;6.95;;
49101;SDS011;34913;47.520;19.186;2023-03-23T08:50:11;11.25;;;6.45;;
49101;SDS011;34913;47.520;19.186;2023-03-23T08:52:38;9.50;;;6.72;;
49101;SDS011;34913;47.520;19.186;2023-03-23T08:55:04;9.32;;;6.65;;
49101;SDS011;34913;47.520;19.186;2023-03-23T08:57:30;9.32;;;6.18;;
49101;SDS011;34913;47.520;19.186;2023-03-23T08:59:56;10.15;;;6.72;;
49101;SDS011;34913;47.520;19.186;2023-03-23T09:02:33;11.52;;;6.10;;
49101;SDS011;34913;47.520;19.186;2023-03-23T09:04:59;11.98;;;6.38;;
49101;SDS011;34913;47.520;19.186;2023-03-23T09:07:26;10.50;;;6.00;;
49101;SDS011;34913;47.520;19.186;2023-03-23T09:09:51;9.45;;;5.65;;
49101;SDS011;34913;47.520;19.186;2023-03-23T09:12:18;10.32;;;6.03;;
49101;SDS011;34913;47.520;19.186;2023-03-23T09:14:43;8.55;;;5.88;;
49101;SDS011;34913;47.520;19.186;2023-03-23T09:17:08;9.68;;;5.50;;
49101;SDS011;34913;47.520;19.186;2023-03-23T09:19:35;8.50;;;5.38;;
49101;SDS011;34913;47.520;19.186;2023-03-23T09:22:01;9.88;;;5.13;;
49101;SDS011;34913;47.520;19.186;2023-03-23T09:24:26;7.32;;;4.88;;
49101;SDS011;34913;47.520;19.186;2023-03-23T09:26:52;8.77;;;4.63;;
49101;SDS011;34913;47.520;19.186;2023-03-23T09:29:18;6.85;;;4.88;;
49101;SDS011;34913;47.520;19.186;2023-03-23T09:31:44;6.28;;;4.68;;
49101;SDS011;34913;47.520;19.186;2023-03-23T09:34:12;11.00;;;5.00;;
49101;SDS011;34913;47.520;19.186;2023-03-23T09:36:38;9.48;;;4.70;;
49101;SDS011;34913;47.520;19.186;2023-03-23T09:39:05;10.65;;;4.80;;
49101;SDS011;34913;47.520;19.186;2023-03-23T09:50:42;7.80;;;4.40;;
49101;SDS011;34913;47.520;19.186;2023-03-23T09:55:47;8.75;;;4.53;;
49101;SDS011;34913;47.520;19.186;2023-03-23T09:58:18;6.53;;;4.20;;
49101;SDS011;34913;47.520;19.186;2023-03-23T10:03:40;5.07;;;4.22;;
49101;SDS011;34913;47.520;19.186;2023-03-23T10:06:09;8.07;;;4.32;;
49101;SDS011;34913;47.520;19.186;2023-03-23T10:08:38;6.28;;;3.80;;
49101;SDS011;34913;47.520;19.186;2023-03-23T10:14:49;9.38;;;3.88;;
49101;SDS011;34913;47.520;19.186;2023-03-23T10:17:28;8.20;;;3.83;;
49101;SDS011;34913;47.520;19.186;2023-03-23T10:22:58;6.30;;;2.95;;
49101;SDS011;34913;47.520;19.186;2023-03-23T10:25:28;5.28;;;3.08;;
49101;SDS011;34913;47.520;19.186;2023-03-23T10:28:01;8.68;;;3.50;;
49101;SDS011;34913;47.520;19.186;2023-03-23T10:31:05;4.35;;;3.22;;
49101;SDS011;34913;47.520;19.186;2023-03-23T10:36:19;3.97;;;2.60;;
49101;SDS011;34913;47.520;19.186;2023-03-23T10:41:39;3.15;;;2.75;;
49101;SDS011;34913;47.520;19.186;2023-03-23T10:44:13;7.18;;;3.10;;
49101;SDS011;34913;47.520;19.186;2023-03-23T10:47:06;4.33;;;2.73;;
49101;SDS011;34913;47.520;19.186;2023-03-23T10:49:43;4.43;;;3.05;;
49101;SDS011;34913;47.520;19.186;2023-03-23T10:54:57;3.42;;;2.40;;
49101;SDS011;34913;47.520;19.186;2023-03-23T10:57:36;6.25;;;2.40;;
49101;SDS011;34913;47.520;19.186;2023-03-23T11:00:19;5.18;;;2.35;;
49101;SDS011;34913;47.520;19.186;2023-03-23T11:03:02;5.38;;;2.58;;
49101;SDS011;34913;47.520;19.186;2023-03-23T11:05:47;2.83;;;2.42;;
49101;SDS011;34913;47.520;19.186;2023-03-23T11:10:53;7.57;;;2.70;;
49101;SDS011;34913;47.520;19.186;2023-03-23T11:13:21;5.65;;;2.95;;
49101;SDS011;34913;47.520;19.186;2023-03-23T11:15:50;3.45;;;2.78;;
49101;SDS011;34913;47.520;19.186;2023-03-23T11:18:21;5.38;;;3.00;;
49101;SDS011;34913;47.520;19.186;2023-03-23T11:20:52;4.35;;;3.30;;
49101;SDS011;34913;47.520;19.186;2023-03-23T11:23:27;4.43;;;2.60;;
49101;SDS011;34913;47.520;19.186;2023-03-23T11:28:46;4.85;;;3.03;;
49101;SDS011;34913;47.520;19.186;2023-03-23T11:31:21;3.53;;;2.70;;
49101;SDS011;34913;47.520;19.186;2023-03-23T11:33:52;6.38;;;2.63;;
49101;SDS011;34913;47.520;19.186;2023-03-23T11:36:20;4.30;;;2.40;;
49101;SDS011;34913;47.520;19.186;2023-03-23T11:38:54;3.40;;;2.33;;
49101;SDS011;34913;47.520;19.186;2023-03-23T11:41:22;4.38;;;2.50;;
49101;SDS011;34913;47.520;19.186;2023-03-23T11:43:50;5.75;;;2.50;;
49101;SDS011;34913;47.520;19.186;2023-03-23T11:46:39;5.65;;;2.80;;
49101;SDS011;34913;47.520;19.186;2023-03-23T11:49:32;7.43;;;2.60;;
49101;SDS011;34913;47.520;19.186;2023-03-23T11:54:43;5.38;;;2.67;;
49101;SDS011;34913;47.520;19.186;2023-03-23T11:57:16;6.75;;;2.40;;
49101;SDS011;34913;47.520;19.186;2023-03-23T11:59:41;5.65;;;2.53;;
49101;SDS011;34913;47.520;19.186;2023-03-23T12:13:21;3.05;;;2.28;;
49101;SDS011;34913;47.520;19.186;2023-03-23T12:15:59;3.05;;;2.10;;
49101;SDS011;34913;47.520;19.186;2023-03-23T12:18:45;2.90;;;2.10;;
49101;SDS011;34913;47.520;19.186;2023-03-23T12:29:04;5.65;;;2.17;;
49101;SDS011;34913;47.520;19.186;2023-03-23T12:32:25;3.53;;;2.10;;
49101;SDS011;34913;47.520;19.186;2023-03-23T12:34:29;7.00;;;2.13;;
49101;SDS011;34913;47.520;19.186;2023-03-23T12:48:52;4.72;;;2.25;;
49101;SDS011;34913;47.520;19.186;2023-03-23T12:51:36;5.35;;;2.20;;
49101;SDS011;34913;47.520;19.186;2023-03-23T12:56:53;4.13;;;2.72;;
49101;SDS011;34913;47.520;19.186;2023-03-23T12:59:36;2.50;;;1.90;;
49101;SDS011;34913;47.520;19.186;2023-03-23T13:05:03;5.07;;;1.98;;
49101;SDS011;34913;47.520;19.186;2023-03-23T13:07:47;5.07;;;2.28;;
49101;SDS011;34913;47.520;19.186;2023-03-23T13:10:25;4.90;;;2.33;;
49101;SDS011;34913;47.520;19.186;2023-03-23T13:12:52;3.90;;;2.13;;
49101;SDS011;34913;47.520;19.186;2023-03-23T13:25:59;10.18;;;2.20;;
49101;SDS011;34913;47.520;19.186;2023-03-23T13:28:27;3.90;;;2.30;;
49101;SDS011;34913;47.520;19.186;2023-03-23T13:33:28;4.25;;;2.17;;
49101;SDS011;34913;47.520;19.186;2023-03-23T13:35:56;3.03;;;2.10;;
49101;SDS011;34913;47.520;19.186;2023-03-23T13:38:26;3.65;;;1.90;;
49101;SDS011;34913;47.520;19.186;2023-03-23T13:40:53;3.05;;;2.28;;
49101;SDS011;34913;47.520;19.186;2023-03-23T13:43:30;5.47;;;2.38;;
49101;SDS011;34913;47.520;19.186;2023-03-23T13:46:32;2.50;;;2.17;;
49101;SDS011;34913;47.520;19.186;2023-03-23T13:51:46;2.75;;;1.90;;
49101;SDS011;34913;47.520;19.186;2023-03-23T13:54:31;4.35;;;1.98;;
49101;SDS011;34913;47.520;19.186;2023-03-23T13:57:18;7.65;;;1.92;;
49101;SDS011;34913;47.520;19.186;2023-03-23T13:59:49;3.67;;;1.90;;
49101;SDS011;34913;47.520;19.186;2023-03-23T14:02:40;3.25;;;2.17;;
49101;SDS011;34913;47.520;19.186;2023-03-23T14:05:28;2.78;;;1.90;;
49101;SDS011;34913;47.520;19.186;2023-03-23T14:08:10;3.17;;;2.05;;
49101;SDS011;34913;47.520;19.186;2023-03-23T14:13:20;4.53;;;2.25;;
49101;SDS011;34913;47.520;19.186;2023-03-23T14:16:01;9.55;;;2.53;;
49101;SDS011;34913;47.520;19.186;2023-03-23T14:18:29;7.10;;;2.50;;
49101;SDS011;34913;47.520;19.186;2023-03-23T14:21:01;5.22;;;2.10;;
49101;SDS011;34913;47.520;19.186;2023-03-23T14:23:30;4.15;;;2.10;;
49101;SDS011;34913;47.520;19.186;2023-03-23T14:26:05;5.00;;;2.28;;
49101;SDS011;34913;47.520;19.186;2023-03-23T14:28:37;5.55;;;2.50;;
49101;SDS011;34913;47.520;19.186;2023-03-23T14:31:04;5.47;;;2.40;;
49101;SDS011;34913;47.520;19.186;2023-03-23T14:33:38;5.45;;;2.20;;
49101;SDS011;34913;47.520;19.186;2023-03-23T14:36:06;4.28;;;2.50;;
49101;SDS011;34913;47.520;19.186;2023-03-23T14:38:32;2.90;;;2.28;;
49101;SDS011;34913;47.520;19.186;2023-03-23T14:41:02;5.50;;;2.00;;
49101;SDS011;34913;47.520;19.186;2023-03-23T14:43:30;3.38;;;2.00;;
49101;SDS011;34913;47.520;19.186;2023-03-23T14:45:59;6.93;;;2.63;;
49101;SDS011;34913;47.520;19.186;2023-03-23T14:48:28;3.80;;;2.25;;
49101;SDS011;34913;47.520;19.186;2023-03-23T14:50:57;4.13;;;2.58;;
49101;SDS011;34913;47.520;19.186;2023-03-23T14:56:09;3.72;;;2.33;;
49101;SDS011;34913;47.520;19.186;2023-03-23T14:58:43;4.15;;;2.35;;
49101;SDS011;34913;47.520;19.186;2023-03-23T15:01:18;5.32;;;2.55;;
49101;SDS011;34913;47.520;19.186;2023-03-23T15:03:57;6.00;;;2.25;;
49101;SDS011;34913;47.520;19.186;2023-03-23T15:06:26;8.40;;;2.58;;
49101;SDS011;34913;47.520;19.186;2023-03-23T15:08:56;9.13;;;2.50;;
49101;SDS011;34913;47.520;19.186;2023-03-23T15:11:24;7.32;;;2.38;;
49101;SDS011;34913;47.520;19.186;2023-03-23T15:13:58;4.82;;;2.28;;
49101;SDS011;34913;47.520;19.186;2023-03-23T15:16:32;3.47;;;1.95;;
49101;SDS011;34913;47.520;19.186;2023-03-23T15:19:03;3.83;;;2.22;;
49101;SDS011;34913;47.520;19.186;2023-03-23T15:21:48;4.97;;;2.40;;
49101;SDS011;34913;47.520;19.186;2023-03-23T15:24:42;2.03;;;1.83;;
49101;SDS011;34913;47.520;19.186;2023-03-23T15:29:58;4.10;;;1.93;;
49101;SDS011;34913;47.520;19.186;2023-03-23T15:32:28;3.70;;;2.00;;
49101;SDS011;34913;47.520;19.186;2023-03-23T15:34:56;5.53;;;2.00;;
49101;SDS011;34913;47.520;19.186;2023-03-23T15:37:32;2.63;;;2.05;;
49101;SDS011;34913;47.520;19.186;2023-03-23T15:40:03;2.45;;;1.90;;
49101;SDS011;34913;47.520;19.186;2023-03-23T15:42:30;3.13;;;2.00;;
49101;SDS011;34913;47.520;19.186;2023-03-23T15:47:36;4.45;;;2.20;;
49101;SDS011;34913;47.520;19.186;2023-03-23T15:52:39;5.47;;;2.30;;
49101;SDS011;34913;47.520;19.186;2023-03-23T15:55:28;2.90;;;2.13;;
49101;SDS011;34913;47.520;19.186;2023-03-23T15:58:00;3.20;;;2.22;;
49101;SDS011;34913;47.520;19.186;2023-03-23T16:00:26;3.97;;;2.47;;
49101;SDS011;34913;47.520;19.186;2023-03-23T16:02:54;5.18;;;2.50;;
49101;SDS011;34913;47.520;19.186;2023-03-23T16:05:22;4.03;;;2.67;;
49101;SDS011;34913;47.520;19.186;2023-03-23T16:07:48;6.82;;;2.80;;
49101;SDS011;34913;47.520;19.186;2023-03-23T16:10:15;5.90;;;2.55;;
49101;SDS011;34913;47.520;19.186;2023-03-23T16:12:43;3.90;;;2.80;;
49101;SDS011;34913;47.520;19.186;2023-03-23T16:15:09;6.10;;;2.83;;
49101;SDS011;34913;47.520;19.186;2023-03-23T16:17:35;6.38;;;2.90;;
49101;SDS011;34913;47.520;19.186;2023-03-23T16:20:00;7.25;;;2.53;;
49101;SDS011;34913;47.520;19.186;2023-03-23T16:22:28;4.38;;;2.60;;
49101;SDS011;34913;47.520;19.186;2023-03-23T16:24:53;4.10;;;2.60;;
49101;SDS011;34913;47.520;19.186;2023-03-23T16:27:19;3.72;;;2.40;;
49101;SDS011;34913;47.520;19.186;2023-03-23T16:29:45;3.45;;;2.20;;
49101;SDS011;34913;47.520;19.186;2023-03-23T16:32:11;4.63;;;2.38;;
49101;SDS011;34913;47.520;19.186;2023-03-23T16:34:36;3.25;;;2.45;;
49101;SDS011;34913;47.520;19.186;2023-03-23T16:37:03;4.15;;;2.38;;
49101;SDS011;34913;47.520;19.186;2023-03-23T16:39:30;2.90;;;2.05;;